createdAt,value
2017-12-09T00:01:02.445Z,4.10
2017-12-09T00:03:29.118Z,3.92
2017-12-09T00:05:55.818Z,3.95
2017-12-09T00:08:22.495Z,3.95
2017-12-09T00:10:49.171Z,5.90
2017-12-09T00:13:15.871Z,6.55
2017-12-09T00:15:42.563Z,7.57
2017-12-09T00:18:09.284Z,6.03
2017-12-09T00:20:35.963Z,4.65
2017-12-09T00:23:02.682Z,5.90
2017-12-09T00:25:29.363Z,4.22
2017-12-09T00:27:56.104Z,6.57
2017-12-09T00:30:22.802Z,4.18
2017-12-09T00:32:50.314Z,5.10
2017-12-09T00:35:16.990Z,4.50
2017-12-09T00:37:43.708Z,4.22
2017-12-09T00:40:10.386Z,5.40
2017-12-09T00:42:37.084Z,4.28
2017-12-09T00:45:03.764Z,4.60
2017-12-09T00:47:30.475Z,4.07
2017-12-09T00:49:57.175Z,5.57
2017-12-09T00:52:23.883Z,3.47
2017-12-09T00:54:50.556Z,5.78
2017-12-09T00:57:17.264Z,4.90
2017-12-09T00:59:43.943Z,8.07
2017-12-09T01:02:10.863Z,4.53
2017-12-09T01:04:37.772Z,3.15
2017-12-09T01:07:04.471Z,5.18
2017-12-09T01:09:31.143Z,2.42
2017-12-09T01:11:57.919Z,3.45
2017-12-09T01:14:24.595Z,3.95
2017-12-09T01:16:57.015Z,3.80
2017-12-09T01:19:23.696Z,5.78
2017-12-09T01:21:50.415Z,2.20
2017-12-09T01:24:18.328Z,2.65
2017-12-09T01:26:45.231Z,4.90
2017-12-09T01:29:11.931Z,3.05
2017-12-09T01:31:39.314Z,5.43
2017-12-09T01:34:06.012Z,4.20
2017-12-09T01:36:32.694Z,4.55
2017-12-09T01:38:59.392Z,3.45
2017-12-09T01:41:26.072Z,4.80
2017-12-09T01:43:52.770Z,6.37
2017-12-09T01:46:19.455Z,7.78
2017-12-09T01:48:46.157Z,7.57
2017-12-09T01:51:13.460Z,7.72
2017-12-09T01:53:40.166Z,12.57
2017-12-09T01:56:06.843Z,9.70
2017-12-09T01:58:33.539Z,5.18
2017-12-09T02:01:00.223Z,5.68
2017-12-09T02:03:26.935Z,4.53
2017-12-09T02:05:53.611Z,4.87
2017-12-09T02:08:21.244Z,9.20
2017-12-09T02:10:47.922Z,5.45
2017-12-09T02:13:14.631Z,8.23
2017-12-09T02:15:41.536Z,7.60
2017-12-09T02:18:08.236Z,6.47
2017-12-09T02:20:35.871Z,5.50
2017-12-09T02:23:02.591Z,5.37
2017-12-09T02:25:29.275Z,5.62
2017-12-09T02:27:55.984Z,7.57
2017-12-09T02:30:22.663Z,7.82
2017-12-09T02:32:49.387Z,6.72
2017-12-09T02:35:16.349Z,6.55
2017-12-09T02:37:43.096Z,6.87
2017-12-09T02:40:09.776Z,8.90
2017-12-09T02:42:37.024Z,7.18
2017-12-09T02:45:03.728Z,6.40
2017-12-09T02:47:30.415Z,7.15
2017-12-09T02:49:57.443Z,6.43
2017-12-09T02:52:24.126Z,8.10
2017-12-09T02:54:50.831Z,8.15
2017-12-09T02:57:17.515Z,6.57
2017-12-09T02:59:44.222Z,8.55
2017-12-09T03:02:10.904Z,7.43
2017-12-09T03:04:37.611Z,6.37
2017-12-09T03:07:04.311Z,8.57
2017-12-09T03:09:31.011Z,6.55
2017-12-09T03:11:58.034Z,8.60
2017-12-09T03:14:24.727Z,9.65
2017-12-09T03:16:51.416Z,5.65
2017-12-09T03:19:18.118Z,6.28
2017-12-09T03:21:44.796Z,6.50
2017-12-09T03:24:11.495Z,6.45
2017-12-09T03:26:38.171Z,9.57
2017-12-09T03:29:04.874Z,9.38
2017-12-09T03:31:31.576Z,7.20
2017-12-09T03:33:58.287Z,6.90
2017-12-09T03:36:24.960Z,7.65
2017-12-09T03:38:51.892Z,7.07
2017-12-09T03:41:18.566Z,6.90
2017-12-09T03:43:45.264Z,6.70
2017-12-09T03:46:11.946Z,5.45
2017-12-09T03:48:38.657Z,9.68
2017-12-09T03:51:05.347Z,8.65
2017-12-09T03:53:32.028Z,7.03
2017-12-09T03:55:58.744Z,8.00
2017-12-09T03:58:25.427Z,7.05
2017-12-09T04:00:52.135Z,8.45
2017-12-09T04:03:18.819Z,7.55
2017-12-09T04:05:45.759Z,8.20
2017-12-09T04:08:12.440Z,9.35
2017-12-09T04:10:39.633Z,6.70
2017-12-09T04:13:06.306Z,7.65
2017-12-09T04:15:33.007Z,7.87
2017-12-09T04:17:59.686Z,7.40
2017-12-09T04:20:26.400Z,8.30
2017-12-09T04:22:53.074Z,8.52
2017-12-09T04:25:20.007Z,11.40
2017-12-09T04:27:47.342Z,8.80
2017-12-09T04:30:14.251Z,9.93
2017-12-09T04:32:40.939Z,12.35
2017-12-09T04:35:08.052Z,11.55
2017-12-09T04:37:34.748Z,12.18
2017-12-09T04:40:01.455Z,9.73
2017-12-09T04:42:28.140Z,9.82
2017-12-09T04:44:55.225Z,10.48
2017-12-09T04:47:21.903Z,8.00
2017-12-09T04:49:48.957Z,8.20
2017-12-09T04:52:15.635Z,8.10
2017-12-09T04:54:42.341Z,8.27
2017-12-09T04:57:09.019Z,12.25
2017-12-09T04:59:35.731Z,9.18
2017-12-09T05:02:02.413Z,9.82
2017-12-09T05:04:29.089Z,6.32
2017-12-09T05:06:55.828Z,7.00
2017-12-09T05:09:22.507Z,8.13
2017-12-09T05:11:49.183Z,7.30
2017-12-09T05:14:15.891Z,6.45
2017-12-09T05:16:42.807Z,6.82
2017-12-09T05:19:09.793Z,10.20
2017-12-09T05:21:36.555Z,5.43
2017-12-09T05:24:03.213Z,6.47
2017-12-09T05:26:29.898Z,7.62
2017-12-09T05:28:56.968Z,7.28
2017-12-09T05:31:23.646Z,6.55
2017-12-09T05:33:50.319Z,5.18
2017-12-09T05:36:17.823Z,7.62
2017-12-09T05:38:44.498Z,10.00
2017-12-09T05:41:11.207Z,6.45
2017-12-09T05:43:37.910Z,6.80
2017-12-09T05:46:04.591Z,8.68
2017-12-09T05:48:31.275Z,5.65
2017-12-09T05:50:58.317Z,6.70
2017-12-09T05:53:24.987Z,7.43
2017-12-09T05:55:51.671Z,6.97
2017-12-09T05:58:18.378Z,8.23
2017-12-09T06:00:45.047Z,8.30
2017-12-09T06:03:11.726Z,6.30
2017-12-09T06:05:38.439Z,7.85
2017-12-09T06:08:05.107Z,6.85
2017-12-09T06:10:32.652Z,8.63
2017-12-09T06:13:03.394Z,10.70
2017-12-09T06:15:30.076Z,4.85
2017-12-09T06:17:56.760Z,6.15
2017-12-09T06:20:23.787Z,9.55
2017-12-09T06:22:50.468Z,9.40
2017-12-09T06:25:17.155Z,8.75
2017-12-09T06:27:43.870Z,10.73
2017-12-09T06:30:10.538Z,6.10
2017-12-09T06:32:37.219Z,10.10
2017-12-09T06:35:04.147Z,8.40
2017-12-09T06:37:30.819Z,8.63
2017-12-09T06:39:57.507Z,7.45
2017-12-09T06:42:24.215Z,9.02
2017-12-09T06:44:51.205Z,14.27
2017-12-09T06:47:18.149Z,13.60
2017-12-09T06:49:45.254Z,12.45
2017-12-09T06:52:11.955Z,10.77
2017-12-09T06:54:38.639Z,10.95
2017-12-09T06:57:05.356Z,10.13
2017-12-09T06:59:32.289Z,13.27
2017-12-09T07:01:59.208Z,11.63
2017-12-09T07:04:25.911Z,9.65
2017-12-09T07:06:52.591Z,13.32
2017-12-09T07:09:19.291Z,12.82
2017-12-09T07:11:46.235Z,11.25
2017-12-09T07:14:13.874Z,11.75
2017-12-09T07:16:41.169Z,13.85
2017-12-09T07:19:07.883Z,14.00
2017-12-09T07:21:34.578Z,13.10
2017-12-09T07:24:01.270Z,13.55
2017-12-09T07:26:28.288Z,14.45
2017-12-09T07:28:55.603Z,15.55
2017-12-09T07:31:22.313Z,14.43
2017-12-09T07:33:49.031Z,13.15
2017-12-09T07:36:16.293Z,14.15
2017-12-09T07:38:43.243Z,15.13
2017-12-09T07:41:09.963Z,15.32
2017-12-09T07:43:36.715Z,17.87
2017-12-09T07:46:03.408Z,15.98
2017-12-09T07:48:30.355Z,16.33
2017-12-09T07:50:57.039Z,15.98
2017-12-09T07:53:23.731Z,16.60
2017-12-09T07:55:50.668Z,16.80
2017-12-09T07:58:17.624Z,15.27
2017-12-09T08:00:44.322Z,15.13
2017-12-09T08:03:11.335Z,21.05
2017-12-09T08:05:38.022Z,15.75
2017-12-09T08:08:04.939Z,16.73
2017-12-09T08:10:31.664Z,16.75
2017-12-09T08:12:58.356Z,16.33
2017-12-09T08:15:25.387Z,18.65
2017-12-09T08:17:52.103Z,17.60
2017-12-09T08:20:18.838Z,17.37
2017-12-09T08:22:45.523Z,19.27
2017-12-09T08:25:13.475Z,17.50
2017-12-09T08:27:40.791Z,17.87
2017-12-09T08:30:07.483Z,18.23
2017-12-09T08:32:34.259Z,19.23
2017-12-09T08:35:01.276Z,18.52
2017-12-09T08:37:28.191Z,18.33
2017-12-09T08:39:54.922Z,17.92
2017-12-09T08:42:23.005Z,18.15
2017-12-09T08:44:49.707Z,16.45
2017-12-09T08:47:16.423Z,18.42
2017-12-09T08:49:43.106Z,17.48
2017-12-09T08:52:10.015Z,18.95
2017-12-09T08:54:36.731Z,16.12
2017-12-09T08:57:03.939Z,16.65
2017-12-09T08:59:30.635Z,16.05
2017-12-09T09:01:57.358Z,15.75
2017-12-09T09:04:24.271Z,15.30
2017-12-09T09:06:50.964Z,14.38
2017-12-09T09:09:17.679Z,15.35
2017-12-09T09:11:44.587Z,15.93
2017-12-09T09:14:11.285Z,16.48
2017-12-09T09:16:38.957Z,17.75
2017-12-09T09:19:05.644Z,19.02
2017-12-09T09:21:32.339Z,16.90
2017-12-09T09:23:59.367Z,13.95
2017-12-09T09:26:26.275Z,16.33
2017-12-09T09:28:52.972Z,14.25
2017-12-09T09:31:20.488Z,17.80
2017-12-09T09:33:47.982Z,16.12
2017-12-09T09:36:14.991Z,16.40
2017-12-09T09:38:41.715Z,15.73
2017-12-09T09:41:08.998Z,16.15
2017-12-09T09:43:35.683Z,16.70
2017-12-09T09:46:02.387Z,17.55
2017-12-09T09:48:29.383Z,17.73
2017-12-09T09:50:56.084Z,17.85
2017-12-09T09:53:22.794Z,17.83
2017-12-09T09:55:50.119Z,17.92
2017-12-09T09:58:17.879Z,17.00
2017-12-09T10:00:44.908Z,18.40
2017-12-09T10:03:11.828Z,16.15
2017-12-09T10:05:38.791Z,17.00
2017-12-09T10:08:05.954Z,17.80
2017-12-09T10:10:33.852Z,19.12
2017-12-09T10:13:00.776Z,18.67
2017-12-09T10:15:27.544Z,17.85
2017-12-09T10:17:55.402Z,17.73
2017-12-09T10:20:22.674Z,18.55
2017-12-09T10:22:49.387Z,16.20
2017-12-09T10:25:16.124Z,17.90
2017-12-09T10:27:43.160Z,18.55
2017-12-09T10:30:10.119Z,18.20
2017-12-09T10:32:36.804Z,17.52
2017-12-09T10:35:04.305Z,18.87
2017-12-09T10:37:31.027Z,19.25
2017-12-09T10:39:58.458Z,17.20
2017-12-09T10:42:25.775Z,16.37
2017-12-09T10:44:52.495Z,16.98
2017-12-09T10:47:19.175Z,17.30
2017-12-09T10:49:45.867Z,17.05
2017-12-09T10:52:12.592Z,15.80
2017-12-09T10:54:39.323Z,18.17
2017-12-09T10:57:06.223Z,16.98
2017-12-09T10:59:32.939Z,18.23
2017-12-09T11:01:59.880Z,16.15
2017-12-09T11:04:28.226Z,18.40
2017-12-09T11:06:55.264Z,17.73
2017-12-09T11:09:21.948Z,16.33
2017-12-09T11:11:48.855Z,19.25
2017-12-09T11:15:12.055Z,18.70
2017-12-09T11:17:38.778Z,19.92
2017-12-09T11:20:05.808Z,17.40
2017-12-09T11:22:32.947Z,19.20
2017-12-09T11:24:59.636Z,18.95
2017-12-09T11:27:26.579Z,19.45
2017-12-09T11:29:53.663Z,18.42
2017-12-09T11:32:20.352Z,18.10
2017-12-09T11:34:47.047Z,16.85
2017-12-09T11:37:13.998Z,17.62
2017-12-09T11:39:40.708Z,18.60
2017-12-09T11:42:07.631Z,17.10
2017-12-09T11:44:34.347Z,17.05
2017-12-09T11:47:01.289Z,17.30
2017-12-09T11:49:28.337Z,15.25
2017-12-09T11:51:55.053Z,17.12
2017-12-09T11:54:22.158Z,15.07
2017-12-09T11:56:48.868Z,15.32
2017-12-09T11:59:15.583Z,16.85
2017-12-09T12:01:42.509Z,16.40
2017-12-09T12:04:09.508Z,15.77
2017-12-09T12:06:36.480Z,16.40
2017-12-09T12:09:03.204Z,17.70
2017-12-09T12:11:30.247Z,18.20
2017-12-09T12:13:56.968Z,18.67
2017-12-09T12:16:23.979Z,16.05
2017-12-09T12:18:51.051Z,17.37
2017-12-09T12:21:18.023Z,17.55
2017-12-09T12:23:45.451Z,18.00
2017-12-09T12:26:12.148Z,19.52
2017-12-09T12:28:38.856Z,19.65
2017-12-09T12:31:05.556Z,19.80
2017-12-09T12:33:32.324Z,19.30
2017-12-09T12:35:59.106Z,18.98
2017-12-09T12:38:26.133Z,18.08
2017-12-09T12:40:53.575Z,18.25
2017-12-09T12:43:20.619Z,18.10
2017-12-09T12:45:47.351Z,18.90
2017-12-09T12:48:14.462Z,19.55
2017-12-09T12:50:41.161Z,20.20
2017-12-09T12:53:08.507Z,20.75
2017-12-09T12:55:35.227Z,21.15
2017-12-09T12:58:01.931Z,23.17
2017-12-09T13:00:28.631Z,21.55
2017-12-09T13:02:55.676Z,20.50
2017-12-09T13:05:23.519Z,19.85
2017-12-09T13:07:50.266Z,21.05
2017-12-09T13:10:16.989Z,20.15
2017-12-09T13:12:43.681Z,19.73
2017-12-09T13:17:48.323Z,20.05
2017-12-09T13:20:15.016Z,19.02
2017-12-09T13:22:41.718Z,19.80
2017-12-09T13:25:08.730Z,20.10
2017-12-09T13:27:35.687Z,18.90
2017-12-09T13:30:02.660Z,18.17
2017-12-09T13:32:29.608Z,22.65
2017-12-09T13:34:56.520Z,19.15
2017-12-09T13:37:23.203Z,21.12
2017-12-09T13:39:50.252Z,24.12
2017-12-09T13:42:17.275Z,20.23
2017-12-09T13:44:44.221Z,20.42
2017-12-09T13:47:12.210Z,19.45
2017-12-09T13:49:39.029Z,19.77
2017-12-09T13:52:05.749Z,21.23
2017-12-09T13:54:32.749Z,22.23
2017-12-09T13:56:59.440Z,22.67
2017-12-09T13:59:27.071Z,23.40
2017-12-09T14:01:54.399Z,22.77
2017-12-09T14:04:21.119Z,23.00
2017-12-09T14:06:48.036Z,22.10
2017-12-09T14:09:15.385Z,21.37
2017-12-09T14:11:42.071Z,22.75
2017-12-09T14:14:09.158Z,23.25
2017-12-09T14:16:36.252Z,22.05
2017-12-09T14:19:03.727Z,20.60
2017-12-09T14:21:30.431Z,21.10
2017-12-09T14:23:58.020Z,19.80
2017-12-09T14:26:24.733Z,19.65
2017-12-09T14:28:52.146Z,19.12
2017-12-09T14:31:19.862Z,18.83
2017-12-09T14:33:46.851Z,16.40
2017-12-09T14:36:13.542Z,16.55
2017-12-09T14:38:40.488Z,16.05
2017-12-09T14:41:07.184Z,16.17
2017-12-09T14:43:33.880Z,15.98
2017-12-09T14:46:00.606Z,15.85
2017-12-09T14:48:27.295Z,17.00
2017-12-09T14:50:54.332Z,17.73
2017-12-09T14:53:21.047Z,18.20
2017-12-09T14:55:47.760Z,19.00
2017-12-09T14:58:14.455Z,21.52
2017-12-09T15:00:41.171Z,20.52
2017-12-09T15:03:08.647Z,24.98
2017-12-09T15:05:35.391Z,28.67
2017-12-09T15:08:02.340Z,27.15
2017-12-09T15:10:29.032Z,28.90
2017-12-09T15:12:55.975Z,34.45
2017-12-09T15:15:24.506Z,29.50
2017-12-09T15:17:51.467Z,28.15
2017-12-09T15:20:19.050Z,25.10
2017-12-09T15:22:46.018Z,24.35
2017-12-09T15:25:12.756Z,26.17
2017-12-09T15:27:39.783Z,22.60
2017-12-09T15:30:06.803Z,23.67
2017-12-09T15:32:33.711Z,23.23
2017-12-09T15:35:00.403Z,27.30
2017-12-09T15:37:27.344Z,20.62
2017-12-09T15:39:54.391Z,22.25
2017-12-09T15:42:21.080Z,21.02
2017-12-09T15:44:47.821Z,19.80
2017-12-09T15:47:14.528Z,20.83
2017-12-09T15:49:41.568Z,21.20
2017-12-09T15:52:08.540Z,22.00
2017-12-09T15:54:35.235Z,24.30
2017-12-09T15:57:01.932Z,23.30
2017-12-09T15:59:28.920Z,23.27
2017-12-09T16:01:55.620Z,21.80
2017-12-09T16:04:22.671Z,23.15
2017-12-09T16:06:49.723Z,23.10
2017-12-09T16:09:17.518Z,23.35
2017-12-09T16:11:44.206Z,25.92
2017-12-09T16:14:11.099Z,22.42
2017-12-09T16:16:38.172Z,24.90
2017-12-09T16:19:04.863Z,24.70
2017-12-09T16:21:31.857Z,23.90
2017-12-09T16:23:58.982Z,34.50
2017-12-09T16:26:26.051Z,25.65
2017-12-09T16:28:53.115Z,25.00
2017-12-09T16:31:20.042Z,21.80
2017-12-09T16:33:47.391Z,22.60
2017-12-09T16:36:14.110Z,21.67
2017-12-09T16:38:40.820Z,23.00
2017-12-09T16:41:08.784Z,22.52
2017-12-09T16:43:35.863Z,22.60
2017-12-09T16:46:02.925Z,20.12
2017-12-09T16:48:29.995Z,20.67
2017-12-09T16:50:56.983Z,22.30
2017-12-09T16:53:24.034Z,21.65
2017-12-09T16:55:51.024Z,22.65
2017-12-09T16:58:17.747Z,20.60
2017-12-09T17:00:45.688Z,21.02
2017-12-09T17:03:13.403Z,19.95
2017-12-09T17:05:40.365Z,19.05
2017-12-09T17:08:07.299Z,21.80
2017-12-09T17:10:34.043Z,20.45
2017-12-09T17:13:01.014Z,20.83
2017-12-09T17:15:31.667Z,20.70
2017-12-09T17:17:58.739Z,19.27
2017-12-09T17:20:25.459Z,19.90
2017-12-09T17:22:52.156Z,19.52
2017-12-09T17:25:19.104Z,19.17
2017-12-09T17:27:45.816Z,20.65
2017-12-09T17:30:12.627Z,24.25
2017-12-09T17:32:39.319Z,21.27
2017-12-09T17:35:06.336Z,20.80
2017-12-09T17:37:33.671Z,18.77
2017-12-09T17:40:00.631Z,17.62
2017-12-09T17:42:27.354Z,17.83
2017-12-09T17:44:54.043Z,19.15
2017-12-09T17:47:20.722Z,17.20
2017-12-09T17:49:47.431Z,16.90
2017-12-09T17:52:14.495Z,15.93
2017-12-09T17:54:41.207Z,17.25
2017-12-09T17:57:08.214Z,17.42
2017-12-09T17:59:34.904Z,17.75
2017-12-09T18:02:01.604Z,20.02
2017-12-09T18:04:28.582Z,18.58
2017-12-09T18:06:55.602Z,19.80
2017-12-09T18:09:22.304Z,19.95
2017-12-09T18:11:49.019Z,18.35
2017-12-09T18:14:15.983Z,18.17
2017-12-09T18:16:42.899Z,17.65
2017-12-09T18:19:10.033Z,22.17
2017-12-09T18:21:37.007Z,22.45
2017-12-09T18:24:03.703Z,16.02
2017-12-09T18:26:30.711Z,15.93
2017-12-09T18:28:57.419Z,17.62
2017-12-09T18:31:24.125Z,21.12
2017-12-09T18:33:50.900Z,16.37
2017-12-09T18:36:17.568Z,17.42
2017-12-09T18:38:44.597Z,17.60
2017-12-09T18:41:11.313Z,15.55
2017-12-09T18:43:38.033Z,16.30
2017-12-09T18:46:04.726Z,16.87
2017-12-09T18:48:31.444Z,15.57
2017-12-09T18:50:58.420Z,17.55
2017-12-09T18:53:25.373Z,17.67
2017-12-09T18:55:52.336Z,16.45
2017-12-09T18:58:19.055Z,14.18
2017-12-09T19:00:45.744Z,19.08
2017-12-09T19:03:12.459Z,15.30
2017-12-09T19:05:39.152Z,17.92
2017-12-09T19:08:06.097Z,16.87
2017-12-09T19:10:32.783Z,14.98
2017-12-09T19:12:59.839Z,14.45
2017-12-09T19:15:26.794Z,17.55
2017-12-09T19:17:53.735Z,15.15
2017-12-09T19:20:20.445Z,13.45
2017-12-09T19:22:47.200Z,17.33
2017-12-09T19:25:13.891Z,16.30
2017-12-09T19:27:40.849Z,15.48
2017-12-09T19:30:07.551Z,14.90
2017-12-09T19:32:34.267Z,12.43
2017-12-09T19:35:01.318Z,13.80
2017-12-09T19:37:28.399Z,13.40
2017-12-09T19:39:55.919Z,17.75
2017-12-09T19:42:23.159Z,13.15
2017-12-09T19:44:50.243Z,15.63
2017-12-09T19:47:17.572Z,13.02
2017-12-09T19:49:44.287Z,13.98
2017-12-09T19:52:11.210Z,12.57
2017-12-09T19:54:38.152Z,12.05
2017-12-09T19:57:05.088Z,13.93
2017-12-09T19:59:31.807Z,11.12
2017-12-09T20:01:58.776Z,12.18
2017-12-09T20:04:25.747Z,17.20
2017-12-09T20:06:52.858Z,14.57
2017-12-09T20:09:20.015Z,15.65
2017-12-09T20:11:46.748Z,11.00
2017-12-09T20:14:13.951Z,13.20
2017-12-09T20:16:40.854Z,12.55
2017-12-09T20:19:07.568Z,12.23
2017-12-09T20:21:34.328Z,11.38
2017-12-09T20:24:01.276Z,11.98
2017-12-09T20:26:28.304Z,11.55
2017-12-09T20:28:55.251Z,11.00
2017-12-09T20:31:22.292Z,13.48
2017-12-09T20:33:49.400Z,11.40
2017-12-09T20:36:16.087Z,11.30
2017-12-09T20:38:42.820Z,10.20
2017-12-09T20:41:10.943Z,10.75
2017-12-09T20:43:38.351Z,13.07
2017-12-09T20:46:05.307Z,11.70
2017-12-09T20:48:32.991Z,10.43
2017-12-09T20:51:00.359Z,11.38
2017-12-09T20:53:27.470Z,13.75
2017-12-09T20:55:54.856Z,10.85
2017-12-09T20:58:21.864Z,9.40
2017-12-09T21:00:48.927Z,9.27
2017-12-09T21:03:16.077Z,9.23
2017-12-09T21:05:42.951Z,9.20
2017-12-09T21:08:10.096Z,7.12
2017-12-09T21:10:38.936Z,9.45
2017-12-09T21:13:06.213Z,8.35
2017-12-09T21:15:33.063Z,9.70
2017-12-09T21:18:00.109Z,8.40
2017-12-09T21:20:27.344Z,10.02
2017-12-09T21:22:54.043Z,9.73
2017-12-09T21:25:22.775Z,8.60
2017-12-09T21:27:49.466Z,9.50
2017-12-09T21:30:16.188Z,8.65
2017-12-09T21:32:43.038Z,9.48
2017-12-09T21:35:09.935Z,8.40
2017-12-09T21:37:36.610Z,9.30
2017-12-09T21:40:03.604Z,8.20
2017-12-09T21:42:30.519Z,8.00
2017-12-09T21:44:57.223Z,9.07
2017-12-09T21:47:23.915Z,7.18
2017-12-09T21:49:50.979Z,8.02
2017-12-09T21:52:17.657Z,9.95
2017-12-09T21:54:44.648Z,10.45
2017-12-09T21:57:11.655Z,9.88
2017-12-09T21:59:38.647Z,8.70
2017-12-09T22:02:05.588Z,18.50
2017-12-09T22:04:32.520Z,15.00
2017-12-09T22:06:59.240Z,10.77
2017-12-09T22:09:26.271Z,8.85
2017-12-09T22:11:52.992Z,13.20
2017-12-09T22:14:19.671Z,15.27
2017-12-09T22:16:46.378Z,9.80
2017-12-09T22:19:13.055Z,9.38
2017-12-09T22:21:40.004Z,8.45
2017-12-09T22:24:06.699Z,8.73
2017-12-09T22:26:33.439Z,9.93
2017-12-09T22:29:00.485Z,11.57
2017-12-09T22:31:27.195Z,10.55
2017-12-09T22:33:54.163Z,13.75
2017-12-09T22:36:20.941Z,9.65
2017-12-09T22:38:47.659Z,11.75
2017-12-09T22:41:14.636Z,12.75
2017-12-09T22:43:42.286Z,11.75
2017-12-09T22:46:09.001Z,9.60
2017-12-09T22:48:35.756Z,13.88
2017-12-09T22:51:02.535Z,10.02
2017-12-09T22:53:29.232Z,8.68
2017-12-09T22:55:56.423Z,9.68
2017-12-09T22:58:23.114Z,7.53
2017-12-09T23:00:50.199Z,7.47
2017-12-09T23:03:16.878Z,7.90
2017-12-09T23:05:43.591Z,9.20
2017-12-09T23:08:10.276Z,9.00
2017-12-09T23:10:37.332Z,8.35
2017-12-09T23:13:04.259Z,10.57
2017-12-09T23:15:30.976Z,8.20
2017-12-09T23:17:57.663Z,7.53
2017-12-09T23:20:24.651Z,9.15
2017-12-09T23:22:51.568Z,10.10
2017-12-09T23:25:18.496Z,8.88
2017-12-09T23:27:45.400Z,8.32
2017-12-09T23:30:13.010Z,11.50
2017-12-09T23:32:39.718Z,9.40
2017-12-09T23:35:08.621Z,8.68
2017-12-09T23:37:35.561Z,9.35
2017-12-09T23:40:02.516Z,7.55
2017-12-09T23:42:29.525Z,8.48
2017-12-09T23:44:56.642Z,8.38
2017-12-09T23:47:24.139Z,10.05
2017-12-09T23:49:50.844Z,6.15
2017-12-09T23:52:17.880Z,9.48
2017-12-09T23:54:44.921Z,6.50
2017-12-09T23:57:12.324Z,6.72
2017-12-09T23:59:41.184Z,8.30
